1H6 weather

Harvey Young Airport
Tulsa, Oklahoma, United States

Public forecast

Using degrees Fahrenheit for public forecast. Weather courtesy of forecast.io.

Closest aviation weather report (METAR) to Harvey Young Airport

Closest report is Tulsa International Airport, 4.7 nm (8.7 km) NW. Retrieved 2019/10/19 13:53 UTC (38 minutes ago):

KTUL 191353Z 06004KT 10SM SCT029 BKN080 BKN120 13/12 A2977 RMK AO2 SLP077 T01280117

Closest aviation forecast (TAF) to Harvey Young Airport

Closest forecast is Tulsa International Airport, 4.7 nm (8.7 km) NW. Retrieved 2019/10/19 12:22 UTC (2 hours ago):

TAF KTUL 191120Z 1912/2012 14007KT P6SM OVC110 FM191700 32008KT P6SM SCT050 FM200100 VRB03KT P6SM SKC TEMPO 2009/2012 1SM BR